Terminal Aerodrome Forecast
Issued by NWS

Home | Current Version | Previous Version | Text Only | Print | Product List | Glossary On
Versions: 1 2 3 4 5 6 7 8 9 10 11 12 13 14 15 16 17 18 19 20 21
000
FTAK31 PANC 021744
TAFADQ
TAF
PADQ 021744Z 0218/0318 29020G35KT P6SM VCSH SCT030 BKN045
     FM022000 29025G40KT P6SM FEW045 SCT150
     FM030200 29040G60KT P6SM FEW045=

USA.gov is the U.S. government's official web portal to all federal, state and local government web resources and services.